Queen Isabella — A8IE2 — position and weather

sailwx.info

Track history (hours):
 
Tides and Currents Weather Stations Pressure Air Temp Water Temp Dewpoint Dewpoint Depression Visibility Wind Speed Wind Dir Waves Ship Positions

Queen Isabella

Last reported at 2014-Aug-28 20:28 UTC. Time now 2014-Aug-29 14:23 UTC.
Position N 33°10' W 008°40'.

; draft 7.1 m.

Type: Ship. MMSI: 636090959.

Date/timePositionNaut miles runAvg speedWind from/ knotsBaromVisibWave heightAir tempDewpointWater temp
2014-Aug-28 20:28N 33°10' W 008°40'0 0.0
2014-Aug-28 19:33N 33°10' W 008°40'0 0.0
2014-Aug-28 18:30N 33°10' W 008°40'0 0.0
2014-Aug-28 17:33N 33°10' W 008°40'0 0.0
2014-Aug-28 00:33N 33°10' W 008°40'0 0.0
2014-Aug-27 04:03N 33°10' W 008°40'0 0.0
2014-Aug-27 03:04N 33°10' W 008°40'0 0.0
2014-Aug-26 01:17N 33°10' W 008°40'0 0.0
2014-Aug-25 14:33N 33°10' W 008°40'  
2014-Aug-22 12:33N 36°40' W 008°08'1313.0
2014-Aug-22 11:33N 36°37' W 008°24'2713.3
2014-Aug-22 09:31N 36°31' W 008°57'1712.1
2014-Aug-22 08:07N 36°30' W 009°18'712.9
2014-Aug-22 07:33N 36°35' W 009°25'2612.2
2014-Aug-22 05:27N 36°58' W 009°40'1312.6
2014-Aug-22 04:25N 37°10' W 009°39'5412.6
2014-Aug-22 00:09N 38°04' W 009°30'2312.8
2014-Aug-21 22:20N 38°27' W 009°27'1012.6
2014-Aug-21 21:33N 38°36' W 009°24'1010.4
2014-Aug-21 20:34N 38°41' W 009°12'6 6.4
2014-Aug-21 19:34N 38°41' W 009°04'0 0.0
2014-Aug-21 18:32N 38°41' W 009°04'0 0.0
2014-Aug-21 17:32N 38°41' W 009°04'0 0.0
2014-Aug-21 16:32N 38°41' W 009°04'0 0.0
2014-Aug-21 15:32N 38°41' W 009°04'0 0.0
2014-Aug-21 14:32N 38°41' W 009°04'0 0.0
2014-Aug-21 13:32N 38°41' W 009°04'0 0.0
2014-Aug-21 12:32N 38°41' W 009°04'0 0.0
2014-Aug-21 11:32N 38°41' W 009°04'0 0.0
2014-Aug-21 10:32N 38°41' W 009°04'0 0.0
2014-Aug-21 09:32N 38°41' W 009°04'0 0.0
2014-Aug-21 08:32N 38°41' W 009°04'0 0.0
2014-Aug-21 07:32N 38°41' W 009°04'0 0.0
2014-Aug-21 06:32N 38°41' W 009°04'0 0.0
2014-Aug-21 05:32N 38°41' W 009°04'0 0.0
2014-Aug-21 04:32N 38°41' W 009°04'0 0.0
2014-Aug-21 03:32N 38°41' W 009°04'0 0.0
2014-Aug-21 02:32N 38°41' W 009°04'0 0.0
2014-Aug-21 01:32N 38°41' W 009°04'0 0.0
2014-Aug-21 00:32N 38°41' W 009°04'0 0.2
2014-Aug-20 23:33N 38°41' W 009°04'5 5.2
2014-Aug-20 22:34N 38°41' W 009°11'10 9.8
2014-Aug-20 21:34N 38°38' W 009°22'2 2.4
2014-Aug-20 20:32N 38°36' W 009°24'3712.3
2014-Aug-20 17:33N 37°59' W 009°25'4213.6
2014-Aug-20 14:26N 37°17' W 009°25'1213.8
2014-Aug-20 13:33N 37°05' W 009°26'1413.6
2014-Aug-20 12:31N 36°51' W 009°23'1813.0
2014-Aug-20 11:09N 36°39' W 009°07'813.7
2014-Aug-20 10:33N 36°37' W 008°57'1413.7
2014-Aug-20 09:33N 36°34' W 008°40'1413.8
2014-Aug-20 08:33N 36°30' W 008°24'1814.0
2014-Aug-20 07:16N 36°24' W 008°03'13413.2
2014-Aug-19 21:08N 36°01' W 005°19'19612.6
2014-Aug-19 05:32N 36°07' W 001°17'  
Track history (hours):
 
Tides and Currents Weather Stations Pressure Air Temp Water Temp Dewpoint Dewpoint Depression Visibility Wind Speed Wind Dir Waves Ship Positions

Queen Isabella

Last reported at 2014-Aug-28 20:28 UTC. Time now 2014-Aug-29 14:23 UTC.
Position N 33°10' W 008°40'.

; draft 7.1 m.

Type: Ship. MMSI: 636090959.

Date/timePositionNaut miles runAvg speedWind from/ knotsBaromVisibWave heightAir tempDewpointWater temp
2014-Aug-28 20:28N 33°10' W 008°40'0 0.0
2014-Aug-28 19:33N 33°10' W 008°40'0 0.0
2014-Aug-28 18:30N 33°10' W 008°40'0 0.0
2014-Aug-28 17:33N 33°10' W 008°40'0 0.0
2014-Aug-28 00:33N 33°10' W 008°40'0 0.0
2014-Aug-27 04:03N 33°10' W 008°40'0 0.0
2014-Aug-27 03:04N 33°10' W 008°40'0 0.0
2014-Aug-26 01:17N 33°10' W 008°40'0 0.0
2014-Aug-25 14:33N 33°10' W 008°40'  
2014-Aug-22 12:33N 36°40' W 008°08'1313.0
2014-Aug-22 11:33N 36°37' W 008°24'2713.3
2014-Aug-22 09:31N 36°31' W 008°57'1712.1
2014-Aug-22 08:07N 36°30' W 009°18'712.9
2014-Aug-22 07:33N 36°35' W 009°25'2612.2
2014-Aug-22 05:27N 36°58' W 009°40'1312.6
2014-Aug-22 04:25N 37°10' W 009°39'5412.6
2014-Aug-22 00:09N 38°04' W 009°30'2312.8
2014-Aug-21 22:20N 38°27' W 009°27'1012.6
2014-Aug-21 21:33N 38°36' W 009°24'1010.4
2014-Aug-21 20:34N 38°41' W 009°12'6 6.4
2014-Aug-21 19:34N 38°41' W 009°04'0 0.0
2014-Aug-21 18:32N 38°41' W 009°04'0 0.0
2014-Aug-21 17:32N 38°41' W 009°04'0 0.0
2014-Aug-21 16:32N 38°41' W 009°04'0 0.0
2014-Aug-21 15:32N 38°41' W 009°04'0 0.0
2014-Aug-21 14:32N 38°41' W 009°04'0 0.0
2014-Aug-21 13:32N 38°41' W 009°04'0 0.0
2014-Aug-21 12:32N 38°41' W 009°04'0 0.0
2014-Aug-21 11:32N 38°41' W 009°04'0 0.0
2014-Aug-21 10:32N 38°41' W 009°04'0 0.0
2014-Aug-21 09:32N 38°41' W 009°04'0 0.0
2014-Aug-21 08:32N 38°41' W 009°04'0 0.0
2014-Aug-21 07:32N 38°41' W 009°04'0 0.0
2014-Aug-21 06:32N 38°41' W 009°04'0 0.0
2014-Aug-21 05:32N 38°41' W 009°04'0 0.0
2014-Aug-21 04:32N 38°41' W 009°04'0 0.0
2014-Aug-21 03:32N 38°41' W 009°04'0 0.0
2014-Aug-21 02:32N 38°41' W 009°04'0 0.0
2014-Aug-21 01:32N 38°41' W 009°04'0 0.0
2014-Aug-21 00:32N 38°41' W 009°04'0 0.2
2014-Aug-20 23:33N 38°41' W 009°04'5 5.2
2014-Aug-20 22:34N 38°41' W 009°11'10 9.8
2014-Aug-20 21:34N 38°38' W 009°22'2 2.4
2014-Aug-20 20:32N 38°36' W 009°24'3712.3
2014-Aug-20 17:33N 37°59' W 009°25'4213.6
2014-Aug-20 14:26N 37°17' W 009°25'1213.8
2014-Aug-20 13:33N 37°05' W 009°26'1413.6
2014-Aug-20 12:31N 36°51' W 009°23'1813.0
2014-Aug-20 11:09N 36°39' W 009°07'813.7
2014-Aug-20 10:33N 36°37' W 008°57'1413.7
2014-Aug-20 09:33N 36°34' W 008°40'1413.8
2014-Aug-20 08:33N 36°30' W 008°24'1814.0
2014-Aug-20 07:16N 36°24' W 008°03'13413.2
2014-Aug-19 21:08N 36°01' W 005°19'19612.6
2014-Aug-19 05:32N 36°07' W 001°17'  

Dump ship's entire track history